sensor_id;sensor_type;location;lat;lon;timestamp;P1;durP1;ratioP1;P2;durP2;ratioP2
61291;SDS011;47165;42.664;23.368;2023-08-17T00:00:13;9.82;;;6.35;;
61291;SDS011;47165;42.664;23.368;2023-08-17T00:02:42;9.75;;;5.75;;
61291;SDS011;47165;42.664;23.368;2023-08-17T00:05:07;11.73;;;6.55;;
61291;SDS011;47165;42.664;23.368;2023-08-17T00:07:33;10.75;;;6.78;;
61291;SDS011;47165;42.664;23.368;2023-08-17T00:09:59;12.25;;;6.90;;
61291;SDS011;47165;42.664;23.368;2023-08-17T00:12:24;9.13;;;6.13;;
61291;SDS011;47165;42.664;23.368;2023-08-17T00:14:50;10.23;;;6.07;;
61291;SDS011;47165;42.664;23.368;2023-08-17T00:17:16;7.25;;;5.50;;
61291;SDS011;47165;42.664;23.368;2023-08-17T00:19:42;11.50;;;6.18;;
61291;SDS011;47165;42.664;23.368;2023-08-17T00:22:07;11.85;;;5.90;;
61291;SDS011;47165;42.664;23.368;2023-08-17T00:24:33;8.68;;;5.50;;
61291;SDS011;47165;42.664;23.368;2023-08-17T00:26:59;15.07;;;7.20;;
61291;SDS011;47165;42.664;23.368;2023-08-17T00:29:24;9.63;;;5.88;;
61291;SDS011;47165;42.664;23.368;2023-08-17T00:31:50;9.52;;;5.72;;
61291;SDS011;47165;42.664;23.368;2023-08-17T00:34:16;10.85;;;6.40;;
61291;SDS011;47165;42.664;23.368;2023-08-17T00:36:42;6.60;;;5.15;;
61291;SDS011;47165;42.664;23.368;2023-08-17T00:39:07;12.70;;;6.07;;
61291;SDS011;47165;42.664;23.368;2023-08-17T00:41:33;10.63;;;5.22;;
61291;SDS011;47165;42.664;23.368;2023-08-17T00:43:59;8.23;;;4.82;;
61291;SDS011;47165;42.664;23.368;2023-08-17T00:46:25;13.45;;;5.10;;
61291;SDS011;47165;42.664;23.368;2023-08-17T00:48:52;12.93;;;6.50;;
61291;SDS011;47165;42.664;23.368;2023-08-17T00:51:21;10.77;;;4.78;;
61291;SDS011;47165;42.664;23.368;2023-08-17T00:53:51;9.43;;;5.22;;
61291;SDS011;47165;42.664;23.368;2023-08-17T00:56:20;9.20;;;4.72;;
61291;SDS011;47165;42.664;23.368;2023-08-17T00:58:46;11.25;;;5.63;;
61291;SDS011;47165;42.664;23.368;2023-08-17T01:01:13;7.45;;;4.65;;
61291;SDS011;47165;42.664;23.368;2023-08-17T01:03:39;10.88;;;4.70;;
61291;SDS011;47165;42.664;23.368;2023-08-17T01:06:09;15.65;;;6.25;;
61291;SDS011;47165;42.664;23.368;2023-08-17T01:08:35;8.80;;;4.60;;
61291;SDS011;47165;42.664;23.368;2023-08-17T01:11:48;10.07;;;5.63;;
61291;SDS011;47165;42.664;23.368;2023-08-17T01:14:01;8.82;;;4.35;;
61291;SDS011;47165;42.664;23.368;2023-08-17T01:19:31;7.88;;;4.40;;
61291;SDS011;47165;42.664;23.368;2023-08-17T01:22:03;6.97;;;3.72;;
61291;SDS011;47165;42.664;23.368;2023-08-17T01:24:30;9.63;;;4.20;;
61291;SDS011;47165;42.664;23.368;2023-08-17T01:26:56;7.25;;;4.70;;
61291;SDS011;47165;42.664;23.368;2023-08-17T01:29:22;7.00;;;3.70;;
61291;SDS011;47165;42.664;23.368;2023-08-17T01:31:59;6.35;;;4.40;;
61291;SDS011;47165;42.664;23.368;2023-08-17T01:37:29;7.20;;;3.67;;
61291;SDS011;47165;42.664;23.368;2023-08-17T01:39:58;7.70;;;3.42;;
61291;SDS011;47165;42.664;23.368;2023-08-17T01:42:24;7.82;;;3.35;;
61291;SDS011;47165;42.664;23.368;2023-08-17T01:44:51;4.13;;;3.47;;
61291;SDS011;47165;42.664;23.368;2023-08-17T01:47:20;8.48;;;4.95;;
61291;SDS011;47165;42.664;23.368;2023-08-17T01:49:46;7.35;;;4.65;;
61291;SDS011;47165;42.664;23.368;2023-08-17T01:52:12;6.50;;;3.97;;
61291;SDS011;47165;42.664;23.368;2023-08-17T01:54:37;9.52;;;4.53;;
61291;SDS011;47165;42.664;23.368;2023-08-17T01:57:03;9.55;;;3.92;;
61291;SDS011;47165;42.664;23.368;2023-08-17T01:59:28;4.07;;;3.42;;
61291;SDS011;47165;42.664;23.368;2023-08-17T02:01:54;9.18;;;4.45;;
61291;SDS011;47165;42.664;23.368;2023-08-17T02:04:19;8.30;;;4.95;;
61291;SDS011;47165;42.664;23.368;2023-08-17T02:06:45;7.18;;;5.00;;
61291;SDS011;47165;42.664;23.368;2023-08-17T02:09:10;9.23;;;5.03;;
61291;SDS011;47165;42.664;23.368;2023-08-17T02:11:36;7.90;;;4.47;;
61291;SDS011;47165;42.664;23.368;2023-08-17T02:14:01;7.43;;;4.68;;
61291;SDS011;47165;42.664;23.368;2023-08-17T02:16:27;6.45;;;3.53;;
61291;SDS011;47165;42.664;23.368;2023-08-17T02:18:52;12.13;;;4.32;;
61291;SDS011;47165;42.664;23.368;2023-08-17T02:21:18;6.70;;;3.47;;
61291;SDS011;47165;42.664;23.368;2023-08-17T02:23:43;6.00;;;3.88;;
61291;SDS011;47165;42.664;23.368;2023-08-17T02:26:09;7.53;;;3.70;;
61291;SDS011;47165;42.664;23.368;2023-08-17T02:28:36;7.05;;;3.35;;
61291;SDS011;47165;42.664;23.368;2023-08-17T02:31:01;6.63;;;3.40;;
61291;SDS011;47165;42.664;23.368;2023-08-17T02:33:27;6.13;;;3.60;;
61291;SDS011;47165;42.664;23.368;2023-08-17T02:35:52;5.47;;;3.53;;
61291;SDS011;47165;42.664;23.368;2023-08-17T02:38:18;9.07;;;3.65;;
61291;SDS011;47165;42.664;23.368;2023-08-17T02:40:43;3.92;;;3.42;;
61291;SDS011;47165;42.664;23.368;2023-08-17T02:43:09;7.25;;;3.88;;
61291;SDS011;47165;42.664;23.368;2023-08-17T02:45:34;5.03;;;3.83;;
61291;SDS011;47165;42.664;23.368;2023-08-17T02:48:00;6.03;;;4.45;;
61291;SDS011;47165;42.664;23.368;2023-08-17T02:50:26;6.22;;;3.60;;
61291;SDS011;47165;42.664;23.368;2023-08-17T02:52:51;6.68;;;4.40;;
61291;SDS011;47165;42.664;23.368;2023-08-17T02:55:17;12.70;;;5.18;;
61291;SDS011;47165;42.664;23.368;2023-08-17T02:57:42;9.95;;;6.47;;
61291;SDS011;47165;42.664;23.368;2023-08-17T03:00:08;7.50;;;3.97;;
61291;SDS011;47165;42.664;23.368;2023-08-17T03:02:34;7.43;;;3.55;;
61291;SDS011;47165;42.664;23.368;2023-08-17T03:04:59;7.82;;;4.25;;
61291;SDS011;47165;42.664;23.368;2023-08-17T03:07:25;7.70;;;3.95;;
61291;SDS011;47165;42.664;23.368;2023-08-17T03:09:50;7.95;;;3.80;;
61291;SDS011;47165;42.664;23.368;2023-08-17T03:12:16;6.10;;;4.18;;
61291;SDS011;47165;42.664;23.368;2023-08-17T03:14:41;3.85;;;3.40;;
61291;SDS011;47165;42.664;23.368;2023-08-17T03:17:07;10.63;;;4.40;;
61291;SDS011;47165;42.664;23.368;2023-08-17T03:19:32;8.23;;;4.03;;
61291;SDS011;47165;42.664;23.368;2023-08-17T03:21:58;9.23;;;6.45;;
61291;SDS011;47165;42.664;23.368;2023-08-17T03:24:23;12.82;;;7.28;;
61291;SDS011;47165;42.664;23.368;2023-08-17T03:26:50;8.70;;;3.53;;
61291;SDS011;47165;42.664;23.368;2023-08-17T03:29:15;7.20;;;3.92;;
61291;SDS011;47165;42.664;23.368;2023-08-17T03:31:41;8.32;;;5.95;;
61291;SDS011;47165;42.664;23.368;2023-08-17T03:34:06;16.65;;;9.80;;
61291;SDS011;47165;42.664;23.368;2023-08-17T03:36:33;6.10;;;4.57;;
61291;SDS011;47165;42.664;23.368;2023-08-17T03:38:58;12.65;;;7.25;;
61291;SDS011;47165;42.664;23.368;2023-08-17T03:41:24;14.95;;;8.43;;
61291;SDS011;47165;42.664;23.368;2023-08-17T03:43:50;13.77;;;8.18;;
61291;SDS011;47165;42.664;23.368;2023-08-17T03:46:15;19.08;;;10.90;;
61291;SDS011;47165;42.664;23.368;2023-08-17T03:48:41;8.25;;;4.63;;
61291;SDS011;47165;42.664;23.368;2023-08-17T03:51:06;5.28;;;3.03;;
61291;SDS011;47165;42.664;23.368;2023-08-17T03:53:32;10.18;;;3.70;;
61291;SDS011;47165;42.664;23.368;2023-08-17T03:55:58;13.80;;;5.75;;
61291;SDS011;47165;42.664;23.368;2023-08-17T03:58:24;9.82;;;5.65;;
61291;SDS011;47165;42.664;23.368;2023-08-17T04:00:52;8.20;;;5.35;;
61291;SDS011;47165;42.664;23.368;2023-08-17T04:03:21;7.50;;;5.40;;
61291;SDS011;47165;42.664;23.368;2023-08-17T04:05:46;10.25;;;4.22;;
61291;SDS011;47165;42.664;23.368;2023-08-17T04:08:12;5.70;;;3.28;;
61291;SDS011;47165;42.664;23.368;2023-08-17T04:10:38;9.95;;;5.80;;
61291;SDS011;47165;42.664;23.368;2023-08-17T04:13:04;14.43;;;6.32;;
61291;SDS011;47165;42.664;23.368;2023-08-17T04:15:30;8.55;;;4.60;;
61291;SDS011;47165;42.664;23.368;2023-08-17T04:17:55;10.05;;;4.10;;
61291;SDS011;47165;42.664;23.368;2023-08-17T04:20:21;7.00;;;3.42;;
61291;SDS011;47165;42.664;23.368;2023-08-17T04:22:48;5.25;;;3.30;;
61291;SDS011;47165;42.664;23.368;2023-08-17T04:25:14;7.85;;;3.80;;
61291;SDS011;47165;42.664;23.368;2023-08-17T04:27:39;8.75;;;3.35;;
61291;SDS011;47165;42.664;23.368;2023-08-17T04:30:05;6.32;;;3.00;;
61291;SDS011;47165;42.664;23.368;2023-08-17T04:32:31;7.40;;;3.78;;
61291;SDS011;47165;42.664;23.368;2023-08-17T04:34:56;7.13;;;4.72;;
61291;SDS011;47165;42.664;23.368;2023-08-17T04:37:23;5.90;;;4.68;;
61291;SDS011;47165;42.664;23.368;2023-08-17T04:39:48;11.23;;;5.85;;
61291;SDS011;47165;42.664;23.368;2023-08-17T04:42:14;7.65;;;5.32;;
61291;SDS011;47165;42.664;23.368;2023-08-17T04:44:40;5.97;;;3.78;;
61291;SDS011;47165;42.664;23.368;2023-08-17T04:47:05;8.35;;;3.58;;
61291;SDS011;47165;42.664;23.368;2023-08-17T04:49:31;10.73;;;3.30;;
61291;SDS011;47165;42.664;23.368;2023-08-17T04:51:57;8.45;;;3.40;;
61291;SDS011;47165;42.664;23.368;2023-08-17T04:54:22;6.95;;;3.40;;
61291;SDS011;47165;42.664;23.368;2023-08-17T04:56:48;8.63;;;5.15;;
61291;SDS011;47165;42.664;23.368;2023-08-17T04:59:13;7.55;;;4.78;;
61291;SDS011;47165;42.664;23.368;2023-08-17T05:01:41;7.25;;;3.17;;
61291;SDS011;47165;42.664;23.368;2023-08-17T05:04:06;7.18;;;4.00;;
61291;SDS011;47165;42.664;23.368;2023-08-17T05:06:32;7.93;;;3.13;;
61291;SDS011;47165;42.664;23.368;2023-08-17T05:08:58;7.07;;;3.00;;
61291;SDS011;47165;42.664;23.368;2023-08-17T05:11:24;4.03;;;2.80;;
61291;SDS011;47165;42.664;23.368;2023-08-17T05:13:50;7.82;;;3.75;;
61291;SDS011;47165;42.664;23.368;2023-08-17T05:16:15;5.45;;;3.75;;
61291;SDS011;47165;42.664;23.368;2023-08-17T05:18:41;4.43;;;3.33;;
61291;SDS011;47165;42.664;23.368;2023-08-17T05:21:06;14.35;;;4.57;;
61291;SDS011;47165;42.664;23.368;2023-08-17T05:23:32;10.63;;;4.97;;
61291;SDS011;47165;42.664;23.368;2023-08-17T05:25:57;7.82;;;5.40;;
61291;SDS011;47165;42.664;23.368;2023-08-17T05:28:23;11.55;;;5.70;;
61291;SDS011;47165;42.664;23.368;2023-08-17T05:30:49;14.02;;;5.40;;
61291;SDS011;47165;42.664;23.368;2023-08-17T05:33:14;11.43;;;5.53;;
61291;SDS011;47165;42.664;23.368;2023-08-17T05:35:40;17.60;;;6.00;;
61291;SDS011;47165;42.664;23.368;2023-08-17T05:38:07;11.90;;;4.68;;
61291;SDS011;47165;42.664;23.368;2023-08-17T05:40:33;12.48;;;6.00;;
61291;SDS011;47165;42.664;23.368;2023-08-17T05:42:58;7.63;;;5.05;;
61291;SDS011;47165;42.664;23.368;2023-08-17T05:45:24;9.73;;;4.85;;
61291;SDS011;47165;42.664;23.368;2023-08-17T05:47:50;10.23;;;4.28;;
61291;SDS011;47165;42.664;23.368;2023-08-17T05:50:15;10.23;;;4.72;;
61291;SDS011;47165;42.664;23.368;2023-08-17T05:52:40;10.32;;;5.82;;
61291;SDS011;47165;42.664;23.368;2023-08-17T05:55:06;10.55;;;3.85;;
61291;SDS011;47165;42.664;23.368;2023-08-17T05:57:32;9.70;;;4.63;;
61291;SDS011;47165;42.664;23.368;2023-08-17T05:59:59;9.27;;;4.80;;
61291;SDS011;47165;42.664;23.368;2023-08-17T06:02:25;12.40;;;4.72;;
61291;SDS011;47165;42.664;23.368;2023-08-17T06:04:50;9.70;;;4.93;;
61291;SDS011;47165;42.664;23.368;2023-08-17T06:07:16;7.07;;;4.55;;
61291;SDS011;47165;42.664;23.368;2023-08-17T06:09:41;20.63;;;7.78;;
61291;SDS011;47165;42.664;23.368;2023-08-17T06:12:07;11.63;;;6.15;;
61291;SDS011;47165;42.664;23.368;2023-08-17T06:14:32;9.95;;;5.43;;
61291;SDS011;47165;42.664;23.368;2023-08-17T06:16:59;10.02;;;4.30;;
61291;SDS011;47165;42.664;23.368;2023-08-17T06:19:26;9.55;;;4.18;;
61291;SDS011;47165;42.664;23.368;2023-08-17T06:21:52;14.85;;;8.20;;
61291;SDS011;47165;42.664;23.368;2023-08-17T06:24:18;8.98;;;4.05;;
61291;SDS011;47165;42.664;23.368;2023-08-17T06:26:44;19.60;;;8.90;;
61291;SDS011;47165;42.664;23.368;2023-08-17T06:29:10;19.17;;;5.55;;
61291;SDS011;47165;42.664;23.368;2023-08-17T06:31:36;6.50;;;3.78;;
61291;SDS011;47165;42.664;23.368;2023-08-17T06:34:02;13.65;;;5.30;;
61291;SDS011;47165;42.664;23.368;2023-08-17T06:36:31;13.13;;;4.88;;
61291;SDS011;47165;42.664;23.368;2023-08-17T06:38:58;12.63;;;4.95;;
61291;SDS011;47165;42.664;23.368;2023-08-17T06:41:23;11.98;;;5.93;;
61291;SDS011;47165;42.664;23.368;2023-08-17T06:43:50;13.98;;;4.65;;
61291;SDS011;47165;42.664;23.368;2023-08-17T06:46:15;7.55;;;5.03;;
61291;SDS011;47165;42.664;23.368;2023-08-17T06:48:42;9.45;;;4.90;;
61291;SDS011;47165;42.664;23.368;2023-08-17T06:51:08;9.50;;;4.38;;
61291;SDS011;47165;42.664;23.368;2023-08-17T06:53:33;9.77;;;5.65;;
61291;SDS011;47165;42.664;23.368;2023-08-17T06:55:59;6.35;;;5.25;;
61291;SDS011;47165;42.664;23.368;2023-08-17T06:58:24;10.95;;;6.18;;
61291;SDS011;47165;42.664;23.368;2023-08-17T07:00:50;10.80;;;5.95;;
61291;SDS011;47165;42.664;23.368;2023-08-17T07:03:15;10.43;;;5.40;;
61291;SDS011;47165;42.664;23.368;2023-08-17T07:05:41;14.68;;;5.97;;
61291;SDS011;47165;42.664;23.368;2023-08-17T07:08:07;7.85;;;5.00;;
61291;SDS011;47165;42.664;23.368;2023-08-17T07:10:32;8.35;;;5.65;;
61291;SDS011;47165;42.664;23.368;2023-08-17T07:12:58;7.65;;;4.32;;
61291;SDS011;47165;42.664;23.368;2023-08-17T07:15:28;9.35;;;4.75;;
61291;SDS011;47165;42.664;23.368;2023-08-17T07:17:53;8.70;;;4.63;;
61291;SDS011;47165;42.664;23.368;2023-08-17T07:20:19;8.57;;;5.05;;
61291;SDS011;47165;42.664;23.368;2023-08-17T07:22:44;10.85;;;4.85;;
61291;SDS011;47165;42.664;23.368;2023-08-17T07:25:10;6.00;;;4.05;;
61291;SDS011;47165;42.664;23.368;2023-08-17T07:27:35;6.75;;;4.15;;
61291;SDS011;47165;42.664;23.368;2023-08-17T07:30:01;6.22;;;4.15;;
61291;SDS011;47165;42.664;23.368;2023-08-17T07:32:27;9.82;;;4.43;;
61291;SDS011;47165;42.664;23.368;2023-08-17T07:34:52;7.38;;;4.22;;
61291;SDS011;47165;42.664;23.368;2023-08-17T07:37:18;25.83;;;6.32;;
61291;SDS011;47165;42.664;23.368;2023-08-17T07:39:43;8.60;;;4.45;;
61291;SDS011;47165;42.664;23.368;2023-08-17T07:42:09;7.72;;;3.47;;
61291;SDS011;47165;42.664;23.368;2023-08-17T07:44:34;6.20;;;3.60;;
61291;SDS011;47165;42.664;23.368;2023-08-17T07:47:00;5.43;;;3.10;;
61291;SDS011;47165;42.664;23.368;2023-08-17T07:49:27;6.72;;;3.30;;
61291;SDS011;47165;42.664;23.368;2023-08-17T07:51:53;8.25;;;4.93;;
61291;SDS011;47165;42.664;23.368;2023-08-17T07:54:19;7.90;;;3.72;;
61291;SDS011;47165;42.664;23.368;2023-08-17T07:56:44;7.75;;;3.25;;
61291;SDS011;47165;42.664;23.368;2023-08-17T07:59:10;8.35;;;2.70;;
61291;SDS011;47165;42.664;23.368;2023-08-17T08:01:36;6.65;;;3.65;;
61291;SDS011;47165;42.664;23.368;2023-08-17T08:04:01;8.02;;;3.63;;
61291;SDS011;47165;42.664;23.368;2023-08-17T08:06:27;5.00;;;3.08;;
61291;SDS011;47165;42.664;23.368;2023-08-17T08:08:52;6.60;;;3.10;;
61291;SDS011;47165;42.664;23.368;2023-08-17T08:11:18;5.43;;;3.13;;
61291;SDS011;47165;42.664;23.368;2023-08-17T08:13:46;5.03;;;2.83;;
61291;SDS011;47165;42.664;23.368;2023-08-17T08:16:12;8.85;;;2.97;;
61291;SDS011;47165;42.664;23.368;2023-08-17T08:18:37;8.93;;;3.15;;
61291;SDS011;47165;42.664;23.368;2023-08-17T08:21:03;6.63;;;3.03;;
61291;SDS011;47165;42.664;23.368;2023-08-17T08:23:29;7.13;;;3.33;;
61291;SDS011;47165;42.664;23.368;2023-08-17T08:25:54;6.30;;;3.38;;
61291;SDS011;47165;42.664;23.368;2023-08-17T08:28:20;7.85;;;3.50;;
61291;SDS011;47165;42.664;23.368;2023-08-17T08:30:45;6.53;;;3.20;;
61291;SDS011;47165;42.664;23.368;2023-08-17T08:33:11;6.55;;;3.80;;
61291;SDS011;47165;42.664;23.368;2023-08-17T08:35:36;8.95;;;3.90;;
61291;SDS011;47165;42.664;23.368;2023-08-17T08:38:03;4.72;;;3.50;;
61291;SDS011;47165;42.664;23.368;2023-08-17T08:40:29;4.10;;;3.28;;
61291;SDS011;47165;42.664;23.368;2023-08-17T08:42:56;7.13;;;4.40;;
61291;SDS011;47165;42.664;23.368;2023-08-17T08:45:22;7.50;;;3.65;;
61291;SDS011;47165;42.664;23.368;2023-08-17T08:47:48;6.80;;;3.45;;
61291;SDS011;47165;42.664;23.368;2023-08-17T08:50:19;7.25;;;3.13;;
61291;SDS011;47165;42.664;23.368;2023-08-17T08:52:58;4.73;;;3.70;;
61291;SDS011;47165;42.664;23.368;2023-08-17T08:55:26;6.20;;;2.92;;
61291;SDS011;47165;42.664;23.368;2023-08-17T08:57:55;4.97;;;3.15;;
61291;SDS011;47165;42.664;23.368;2023-08-17T09:00:22;5.60;;;3.22;;
61291;SDS011;47165;42.664;23.368;2023-08-17T09:02:48;4.72;;;3.70;;
61291;SDS011;47165;42.664;23.368;2023-08-17T09:05:14;4.78;;;2.80;;
61291;SDS011;47165;42.664;23.368;2023-08-17T09:07:41;5.78;;;4.15;;
61291;SDS011;47165;42.664;23.368;2023-08-17T09:10:08;9.70;;;3.72;;
61291;SDS011;47165;42.664;23.368;2023-08-17T09:12:34;9.10;;;3.53;;
61291;SDS011;47165;42.664;23.368;2023-08-17T09:15:00;6.55;;;3.55;;
61291;SDS011;47165;42.664;23.368;2023-08-17T09:17:26;9.27;;;2.97;;
61291;SDS011;47165;42.664;23.368;2023-08-17T09:19:52;6.95;;;3.13;;
61291;SDS011;47165;42.664;23.368;2023-08-17T09:22:24;3.63;;;3.00;;
61291;SDS011;47165;42.664;23.368;2023-08-17T09:24:50;4.78;;;3.22;;
61291;SDS011;47165;42.664;23.368;2023-08-17T09:27:16;6.85;;;3.28;;
61291;SDS011;47165;42.664;23.368;2023-08-17T09:29:42;4.95;;;2.72;;
61291;SDS011;47165;42.664;23.368;2023-08-17T09:32:11;4.28;;;2.47;;
61291;SDS011;47165;42.664;23.368;2023-08-17T09:34:41;5.47;;;2.88;;
61291;SDS011;47165;42.664;23.368;2023-08-17T09:37:06;6.70;;;3.50;;
61291;SDS011;47165;42.664;23.368;2023-08-17T09:39:32;6.13;;;2.88;;
61291;SDS011;47165;42.664;23.368;2023-08-17T09:41:59;6.32;;;2.97;;
61291;SDS011;47165;42.664;23.368;2023-08-17T09:44:25;3.75;;;2.08;;
61291;SDS011;47165;42.664;23.368;2023-08-17T09:46:55;4.50;;;2.65;;
61291;SDS011;47165;42.664;23.368;2023-08-17T09:51:54;2.75;;;2.40;;
61291;SDS011;47165;42.664;23.368;2023-08-17T09:54:24;5.38;;;2.13;;
61291;SDS011;47165;42.664;23.368;2023-08-17T09:56:52;7.22;;;2.60;;
61291;SDS011;47165;42.664;23.368;2023-08-17T09:59:18;7.25;;;2.75;;
61291;SDS011;47165;42.664;23.368;2023-08-17T10:01:44;4.18;;;2.70;;
61291;SDS011;47165;42.664;23.368;2023-08-17T10:04:15;5.75;;;2.42;;
61291;SDS011;47165;42.664;23.368;2023-08-17T10:06:47;4.05;;;2.90;;
61291;SDS011;47165;42.664;23.368;2023-08-17T10:09:17;8.80;;;4.22;;
61291;SDS011;47165;42.664;23.368;2023-08-17T10:11:48;4.53;;;2.92;;
61291;SDS011;47165;42.664;23.368;2023-08-17T10:14:18;5.03;;;2.90;;
61291;SDS011;47165;42.664;23.368;2023-08-17T10:16:53;4.25;;;2.70;;
61291;SDS011;47165;42.664;23.368;2023-08-17T10:19:33;7.10;;;2.63;;
61291;SDS011;47165;42.664;23.368;2023-08-17T10:22:16;10.18;;;3.15;;
61291;SDS011;47165;42.664;23.368;2023-08-17T10:24:45;5.38;;;2.65;;
61291;SDS011;47165;42.664;23.368;2023-08-17T10:27:11;5.18;;;2.40;;
61291;SDS011;47165;42.664;23.368;2023-08-17T10:29:38;4.30;;;2.55;;
61291;SDS011;47165;42.664;23.368;2023-08-17T10:32:06;4.80;;;2.20;;
61291;SDS011;47165;42.664;23.368;2023-08-17T10:34:33;3.30;;;2.03;;
61291;SDS011;47165;42.664;23.368;2023-08-17T10:37:00;6.43;;;2.72;;
61291;SDS011;47165;42.664;23.368;2023-08-17T10:39:27;3.40;;;1.92;;
61291;SDS011;47165;42.664;23.368;2023-08-17T10:41:53;3.42;;;2.20;;
61291;SDS011;47165;42.664;23.368;2023-08-17T10:50:21;4.95;;;3.33;;
61291;SDS011;47165;42.664;23.368;2023-08-17T10:52:48;6.50;;;3.75;;
61291;SDS011;47165;42.664;23.368;2023-08-17T10:55:15;3.03;;;2.10;;
61291;SDS011;47165;42.664;23.368;2023-08-17T10:57:42;11.32;;;2.80;;
61291;SDS011;47165;42.664;23.368;2023-08-17T11:00:15;6.65;;;3.42;;
61291;SDS011;47165;42.664;23.368;2023-08-17T11:05:40;6.35;;;2.40;;
61291;SDS011;47165;42.664;23.368;2023-08-17T11:08:09;6.60;;;2.63;;
61291;SDS011;47165;42.664;23.368;2023-08-17T11:10:36;6.07;;;3.08;;
61291;SDS011;47165;42.664;23.368;2023-08-17T11:13:03;5.43;;;3.30;;
61291;SDS011;47165;42.664;23.368;2023-08-17T11:15:40;6.63;;;3.60;;
61291;SDS011;47165;42.664;23.368;2023-08-17T11:18:10;7.40;;;2.85;;
61291;SDS011;47165;42.664;23.368;2023-08-17T11:20:37;4.55;;;3.15;;
61291;SDS011;47165;42.664;23.368;2023-08-17T11:23:05;7.25;;;4.20;;
61291;SDS011;47165;42.664;23.368;2023-08-17T11:25:31;4.32;;;2.80;;
61291;SDS011;47165;42.664;23.368;2023-08-17T11:27:58;5.93;;;3.15;;
61291;SDS011;47165;42.664;23.368;2023-08-17T11:30:25;3.83;;;2.67;;
61291;SDS011;47165;42.664;23.368;2023-08-17T11:32:53;6.10;;;4.10;;
61291;SDS011;47165;42.664;23.368;2023-08-17T11:35:19;5.05;;;2.72;;
61291;SDS011;47165;42.664;23.368;2023-08-17T11:37:46;3.10;;;2.55;;
61291;SDS011;47165;42.664;23.368;2023-08-17T11:40:16;3.58;;;2.70;;
61291;SDS011;47165;42.664;23.368;2023-08-17T11:42:42;5.30;;;3.38;;
61291;SDS011;47165;42.664;23.368;2023-08-17T11:45:08;9.75;;;3.58;;
61291;SDS011;47165;42.664;23.368;2023-08-17T11:47:34;6.55;;;2.90;;
61291;SDS011;47165;42.664;23.368;2023-08-17T11:50:05;3.45;;;2.83;;
61291;SDS011;47165;42.664;23.368;2023-08-17T11:52:33;6.38;;;3.17;;
61291;SDS011;47165;42.664;23.368;2023-08-17T11:54:59;5.57;;;3.53;;
61291;SDS011;47165;42.664;23.368;2023-08-17T11:57:25;6.28;;;5.68;;
61291;SDS011;47165;42.664;23.368;2023-08-17T11:59:55;13.80;;;8.07;;
61291;SDS011;47165;42.664;23.368;2023-08-17T12:02:24;4.95;;;2.92;;
61291;SDS011;47165;42.664;23.368;2023-08-17T12:04:51;4.38;;;3.35;;
61291;SDS011;47165;42.664;23.368;2023-08-17T12:07:17;8.43;;;3.35;;
61291;SDS011;47165;42.664;23.368;2023-08-17T12:09:43;7.53;;;3.08;;
61291;SDS011;47165;42.664;23.368;2023-08-17T12:12:10;4.90;;;3.03;;
61291;SDS011;47165;42.664;23.368;2023-08-17T12:14:36;4.28;;;2.80;;
61291;SDS011;47165;42.664;23.368;2023-08-17T12:17:02;4.97;;;3.35;;
61291;SDS011;47165;42.664;23.368;2023-08-17T12:19:29;4.05;;;2.13;;
61291;SDS011;47165;42.664;23.368;2023-08-17T12:21:54;4.05;;;2.70;;
61291;SDS011;47165;42.664;23.368;2023-08-17T12:24:23;7.65;;;3.25;;
61291;SDS011;47165;42.664;23.368;2023-08-17T12:26:49;4.78;;;3.30;;
61291;SDS011;47165;42.664;23.368;2023-08-17T12:29:15;6.93;;;3.20;;
61291;SDS011;47165;42.664;23.368;2023-08-17T12:31:41;8.95;;;3.03;;
61291;SDS011;47165;42.664;23.368;2023-08-17T12:34:06;5.93;;;3.85;;
61291;SDS011;47165;42.664;23.368;2023-08-17T12:36:32;8.73;;;3.63;;
61291;SDS011;47165;42.664;23.368;2023-08-17T12:38:58;4.15;;;3.03;;
61291;SDS011;47165;42.664;23.368;2023-08-17T12:41:24;5.38;;;2.85;;
61291;SDS011;47165;42.664;23.368;2023-08-17T12:43:49;5.15;;;3.35;;
61291;SDS011;47165;42.664;23.368;2023-08-17T12:46:15;8.75;;;3.85;;
61291;SDS011;47165;42.664;23.368;2023-08-17T12:48:41;6.47;;;3.22;;
61291;SDS011;47165;42.664;23.368;2023-08-17T12:51:07;4.75;;;3.67;;
61291;SDS011;47165;42.664;23.368;2023-08-17T12:53:32;4.68;;;4.00;;
61291;SDS011;47165;42.664;23.368;2023-08-17T12:55:58;7.22;;;3.75;;
61291;SDS011;47165;42.664;23.368;2023-08-17T12:58:23;14.13;;;5.85;;
61291;SDS011;47165;42.664;23.368;2023-08-17T13:00:49;9.48;;;5.32;;
61291;SDS011;47165;42.664;23.368;2023-08-17T13:03:16;7.20;;;4.20;;
61291;SDS011;47165;42.664;23.368;2023-08-17T13:05:42;5.63;;;4.15;;
61291;SDS011;47165;42.664;23.368;2023-08-17T13:08:08;5.50;;;3.83;;
61291;SDS011;47165;42.664;23.368;2023-08-17T13:10:34;6.63;;;4.28;;
61291;SDS011;47165;42.664;23.368;2023-08-17T13:12:59;4.72;;;3.65;;
61291;SDS011;47165;42.664;23.368;2023-08-17T13:15:25;5.03;;;3.53;;
61291;SDS011;47165;42.664;23.368;2023-08-17T13:17:50;5.95;;;4.03;;
61291;SDS011;47165;42.664;23.368;2023-08-17T13:20:16;6.82;;;3.83;;
61291;SDS011;47165;42.664;23.368;2023-08-17T13:22:42;10.25;;;3.88;;
61291;SDS011;47165;42.664;23.368;2023-08-17T13:25:07;7.53;;;4.10;;
61291;SDS011;47165;42.664;23.368;2023-08-17T13:27:33;10.13;;;4.20;;
61291;SDS011;47165;42.664;23.368;2023-08-17T13:29:59;4.80;;;3.90;;
61291;SDS011;47165;42.664;23.368;2023-08-17T13:32:26;9.05;;;3.83;;
61291;SDS011;47165;42.664;23.368;2023-08-17T13:34:52;5.10;;;3.70;;
61291;SDS011;47165;42.664;23.368;2023-08-17T13:37:17;4.80;;;3.65;;
61291;SDS011;47165;42.664;23.368;2023-08-17T13:39:43;6.50;;;3.80;;
61291;SDS011;47165;42.664;23.368;2023-08-17T13:42:09;9.23;;;3.30;;
61291;SDS011;47165;42.664;23.368;2023-08-17T13:44:35;7.13;;;4.38;;
61291;SDS011;47165;42.664;23.368;2023-08-17T13:47:00;10.35;;;4.15;;
61291;SDS011;47165;42.664;23.368;2023-08-17T13:49:26;7.28;;;4.22;;
61291;SDS011;47165;42.664;23.368;2023-08-17T13:51:53;8.57;;;4.30;;
61291;SDS011;47165;42.664;23.368;2023-08-17T13:54:19;6.95;;;3.85;;
61291;SDS011;47165;42.664;23.368;2023-08-17T13:56:44;5.90;;;3.88;;
61291;SDS011;47165;42.664;23.368;2023-08-17T13:59:11;7.15;;;4.43;;
61291;SDS011;47165;42.664;23.368;2023-08-17T14:01:36;8.00;;;3.67;;
61291;SDS011;47165;42.664;23.368;2023-08-17T14:04:02;6.65;;;3.85;;
61291;SDS011;47165;42.664;23.368;2023-08-17T14:06:29;8.70;;;4.82;;
61291;SDS011;47165;42.664;23.368;2023-08-17T14:08:54;10.88;;;4.70;;
61291;SDS011;47165;42.664;23.368;2023-08-17T14:11:20;6.05;;;3.80;;
61291;SDS011;47165;42.664;23.368;2023-08-17T14:13:45;12.20;;;4.15;;
61291;SDS011;47165;42.664;23.368;2023-08-17T14:16:11;7.65;;;3.63;;
61291;SDS011;47165;42.664;23.368;2023-08-17T14:18:36;6.28;;;3.75;;
61291;SDS011;47165;42.664;23.368;2023-08-17T14:21:02;9.02;;;3.67;;
61291;SDS011;47165;42.664;23.368;2023-08-17T14:23:27;8.88;;;4.43;;
61291;SDS011;47165;42.664;23.368;2023-08-17T14:25:53;6.50;;;3.40;;
61291;SDS011;47165;42.664;23.368;2023-08-17T14:28:19;11.88;;;3.47;;
61291;SDS011;47165;42.664;23.368;2023-08-17T14:30:45;5.15;;;3.15;;
61291;SDS011;47165;42.664;23.368;2023-08-17T14:33:10;12.60;;;4.30;;
61291;SDS011;47165;42.664;23.368;2023-08-17T14:35:37;7.75;;;3.95;;
61291;SDS011;47165;42.664;23.368;2023-08-17T14:38:03;5.00;;;3.30;;
61291;SDS011;47165;42.664;23.368;2023-08-17T14:40:29;6.15;;;3.63;;
61291;SDS011;47165;42.664;23.368;2023-08-17T14:42:54;10.30;;;3.75;;